KCMI/CMI METAR and TAF weather

Enter ICAO airport designator
Station Type Date Time Source
KCMI METAR 2018/04/21 20:53 UTC NOAA

KCMI 212053Z 06014KT 10SM CLR 17/M03 A3029 RMK AO2 SLP258 T01671028 58027


Station Type Date Time Source
KCMI Decoded METAR 2018/04/21 20:53 UTC NOAA

UNIV OF ILLINOIS-WILLARD, IL, United States (KCMI) 40-02N 088-16W 228M
Apr 21, 2018 - 04:53 PM EDT / 2018.04.21 2053 UTC
Wind: from the ENE (060 degrees) at 16 MPH (14 KT):0
Visibility: 10 mile(s):0
Sky conditions: clear
Temperature: 62.1 F (16.7 C)
Dew Point: 27.0 F (-2.8 C)
Relative Humidity: 26%
Pressure (altimeter): 30.29 in. Hg (1025 hPa)
Pressure tendency: 0.08 inches (2.7 hPa) lower than three hours ago
ob: KCMI 212053Z 06014KT 10SM CLR 17/M03 A3029 RMK AO2 SLP258 T01671028 58027
cycle: 21

Station Type Date Time Source
KCMI TAF 2018/04/21 18:24 UTC NOAA

TAF KCMI 211721Z 2118/2218 10010G17KT P6SM BKN200
FM220000 08010KT P6SM BKN150


Example: see airport list